Time;durP1;ratioP1;P1;durP2;ratioP2;P2;SDS_P1;SDS_P2;PMS_P1;PMS_P2;Temp;Humidity;BMP_temperature;BMP_pressure;BME280_temperature;BME280_humidity;BME280_pressure;Samples;Min_cycle;Max_cycle;Signal;HPM_P1;HPM_P2
2021/08/05 00:00:40;;;;;;;15.50;9.85;;;;;;;17.31;100.00;99251.00;1733001;82;20920;-72
2021/08/05 00:03:07;;;;;;;16.20;9.98;;;;;;;17.29;100.00;99242.25;1733193;82;21024;-72
2021/08/05 00:05:34;;;;;;;15.93;9.70;;;;;;;17.28;100.00;99244.22;1733035;82;20857;-72
2021/08/05 00:08:01;;;;;;;15.90;9.65;;;;;;;17.27;100.00;99245.39;1733316;82;21085;-71
2021/08/05 00:10:27;;;;;;;17.00;10.53;;;;;;;17.25;100.00;99234.44;1732985;82;21495;-71
2021/08/05 00:12:54;;;;;;;12.45;9.53;;;;;;;17.23;100.00;99236.20;1733243;82;21431;-71
2021/08/05 00:15:20;;;;;;;15.15;9.60;;;;;;;17.22;100.00;99237.95;1732994;82;20989;-70
2021/08/05 00:17:46;;;;;;;15.35;9.55;;;;;;;17.20;100.00;99234.16;1733259;82;20987;-70
2021/08/05 00:20:13;;;;;;;13.35;9.45;;;;;;;17.21;100.00;99233.57;1733249;82;21487;-70
2021/08/05 00:22:40;;;;;;;12.40;9.08;;;;;;;17.18;100.00;99230.95;1733147;82;20945;-71
2021/08/05 00:25:08;;;;;;;14.20;9.23;;;;;;;17.16;100.00;99235.47;1733119;82;20980;-70
2021/08/05 00:27:34;;;;;;;11.95;9.38;;;;;;;17.14;100.00;99228.69;1733224;82;20905;-69
2021/08/05 00:30:01;;;;;;;12.00;9.25;;;;;;;17.12;100.00;99229.64;1733028;82;20888;-69
2021/08/05 00:32:28;;;;;;;13.70;10.68;;;;;;;17.09;100.00;99231.76;1730864;82;21552;-69
2021/08/05 00:34:55;;;;;;;14.68;10.05;;;;;;;17.06;100.00;99233.30;1715905;83;21433;-71
2021/08/05 00:37:21;;;;;;;15.95;11.50;;;;;;;17.03;100.00;99234.03;1715975;82;20942;-71
2021/08/05 00:39:48;;;;;;;14.75;10.05;;;;;;;17.03;100.00;99234.03;1715921;83;20980;-72
2021/08/05 00:42:15;;;;;;;18.23;10.63;;;;;;;17.02;100.00;99227.45;1719876;82;20854;-71
2021/08/05 00:44:43;;;;;;;14.07;10.05;;;;;;;17.04;100.00;99229.28;1745665;81;20874;-71
2021/08/05 00:47:10;;;;;;;16.05;10.53;;;;;;;17.05;100.00;99228.91;1745808;81;20922;-71
2021/08/05 00:49:37;;;;;;;15.72;11.18;;;;;;;17.05;100.00;99228.11;1745681;82;20929;-71
2021/08/05 00:52:05;;;;;;;13.38;11.28;;;;;;;17.05;100.00;99222.56;1745712;82;20936;-71
2021/08/05 00:54:32;;;;;;;17.60;10.98;;;;;;;17.04;100.00;99220.38;1745672;82;21453;-71
2021/08/05 00:56:59;;;;;;;20.30;12.80;;;;;;;17.04;100.00;99226.51;1745575;82;21010;-71
2021/08/05 00:59:27;;;;;;;14.18;11.05;;;;;;;17.02;100.00;99224.10;1745611;81;20929;-71
2021/08/05 01:02:04;;;;;;;13.93;10.58;;;;;;;17.00;100.00;99218.12;1745729;82;20898;-71
2021/08/05 01:04:32;;;;;;;17.55;12.13;;;;;;;16.99;100.00;99215.71;1736301;82;20926;-71
2021/08/05 01:07:10;;;;;;;14.75;12.15;;;;;;;16.96;100.00;99210.90;1745673;82;21531;-71
2021/08/05 01:10:19;;;;;;;31.68;13.03;;;;;;;16.94;100.00;99216.00;1743256;81;21655;-73
2021/08/05 01:12:57;;;;;;;19.57;12.10;;;;;;;16.91;100.00;99216.16;1745759;82;20913;-73
2021/08/05 01:15:25;;;;;;;11.93;10.68;;;;;;;16.90;100.00;99218.70;1743991;82;20922;-71
2021/08/05 01:18:00;;;;;;;17.27;12.18;;;;;;;16.89;100.00;99216.30;1745597;82;20898;-71
2021/08/05 01:20:27;;;;;;;17.48;11.93;;;;;;;16.89;100.00;99214.91;1744777;81;21035;-73
2021/08/05 01:23:30;;;;;;;14.43;11.18;;;;;;;16.89;100.00;99212.14;1745627;82;21520;-72
2021/08/05 01:26:12;;;;;;;18.32;12.20;;;;;;;16.88;100.00;99212.73;1727424;82;20968;-71
2021/08/05 01:28:43;;;;;;;19.45;13.00;;;;;;;16.89;100.00;99216.30;1745599;81;21025;-72
2021/08/05 01:31:09;;;;;;;19.40;12.43;;;;;;;16.90;100.00;99208.20;1745855;82;20925;-71
2021/08/05 01:33:37;;;;;;;13.68;12.20;;;;;;;16.90;100.00;99209.00;1752501;81;21007;-70
2021/08/05 01:36:05;;;;;;;14.20;11.43;;;;;;;16.91;100.00;99206.45;1760688;81;20901;-70
2021/08/05 01:38:36;;;;;;;17.80;11.93;;;;;;;16.91;100.00;99200.91;1760980;81;21404;-72
2021/08/05 01:41:05;;;;;;;16.90;11.68;;;;;;;16.91;100.00;99202.88;1760704;81;20920;-72
2021/08/05 01:43:33;;;;;;;18.95;11.57;;;;;;;16.90;100.00;99206.23;1760687;80;20993;-72
2021/08/05 01:45:59;;;;;;;16.25;12.60;;;;;;;16.88;100.00;99200.25;1760729;81;21051;-72
2021/08/05 01:48:28;;;;;;;17.48;12.05;;;;;;;16.86;100.00;99203.17;1760715;81;20932;-72
2021/08/05 01:50:55;;;;;;;18.30;11.90;;;;;;;16.82;100.00;99201.13;1760652;80;20893;-72
2021/08/05 01:53:21;;;;;;;18.02;11.73;;;;;;;16.82;100.00;99203.09;1760976;81;20881;-72
2021/08/05 01:55:49;;;;;;;16.95;11.28;;;;;;;16.79;100.00;99196.90;1760749;81;20983;-72
2021/08/05 01:58:15;;;;;;;20.00;11.35;;;;;;;16.75;100.00;99198.83;1748969;81;21428;-70
2021/08/05 02:00:43;;;;;;;17.00;11.28;;;;;;;16.73;100.00;99202.55;1730554;83;21963;-71
2021/08/05 02:03:10;;;;;;;15.50;10.60;;;;;;;16.71;100.00;99200.14;1730432;83;21534;-71
2021/08/05 02:06:16;;;;;;;15.90;11.33;;;;;;;16.68;100.00;99195.91;1730486;83;21549;-71
2021/08/05 02:08:48;;;;;;;16.30;11.53;;;;;;;16.63;100.00;99196.16;1730510;83;21468;-72
2021/08/05 02:11:15;;;;;;;14.10;11.05;;;;;;;16.57;100.00;99184.57;1730375;82;20885;-74
2021/08/05 02:13:43;;;;;;;18.98;11.57;;;;;;;16.54;100.00;99189.45;1730486;83;21089;-74
2021/08/05 02:16:13;;;;;;;19.12;12.10;;;;;;;16.50;100.00;99187.19;1730423;83;20968;-74
2021/08/05 02:18:43;;;;;;;21.65;10.50;;;;;;;16.46;100.00;99182.95;1730190;83;20881;-74
2021/08/05 02:21:13;;;;;;;14.98;10.80;;;;;;;16.44;100.00;99191.41;1712772;83;20964;-74
2021/08/05 02:23:40;;;;;;;18.05;10.98;;;;;;;16.42;100.00;99190.97;1730479;83;20936;-72
2021/08/05 02:26:07;;;;;;;16.80;11.60;;;;;;;16.42;100.00;99189.59;1730461;83;22163;-72
2021/08/05 02:28:34;;;;;;;13.80;10.63;;;;;;;16.41;100.00;99179.67;1730406;83;20924;-73
2021/08/05 02:31:01;;;;;;;15.93;11.28;;;;;;;16.39;100.00;99186.96;1730405;83;21448;-73
2021/08/05 02:33:31;;;;;;;22.22;11.20;;;;;;;16.37;100.00;99190.67;1730393;82;21452;-73
2021/08/05 02:35:58;;;;;;;20.17;12.37;;;;;;;16.35;100.00;99191.63;1730511;82;20936;-73
2021/08/05 02:38:26;;;;;;;17.92;10.58;;;;;;;16.34;100.00;99187.24;1730461;83;21537;-73
2021/08/05 02:40:53;;;;;;;17.00;11.05;;;;;;;16.32;100.00;99187.39;1730375;83;21416;-73
2021/08/05 02:43:21;;;;;;;23.75;12.15;;;;;;;16.29;100.00;99194.45;1730439;81;21039;-74
2021/08/05 02:45:50;;;;;;;21.05;10.70;;;;;;;16.28;100.00;99193.43;1730378;83;20952;-74
2021/08/05 02:48:16;;;;;;;14.53;11.18;;;;;;;16.26;100.00;99194.38;1702595;84;20910;-73
2021/08/05 02:50:43;;;;;;;20.32;11.90;;;;;;;16.25;100.00;99185.27;1695301;84;21564;-74
2021/08/05 02:53:10;;;;;;;13.83;11.68;;;;;;;16.23;100.00;99182.63;1687884;84;20982;-74
2021/08/05 02:55:37;;;;;;;21.23;11.75;;;;;;;16.23;100.00;99184.02;1745692;81;20944;-74
2021/08/05 02:58:03;;;;;;;16.12;10.98;;;;;;;16.22;100.00;99177.67;1730351;83;20910;-75
2021/08/05 03:00:30;;;;;;;18.48;12.65;;;;;;;16.23;100.00;99171.55;1730888;83;21078;-74
2021/08/05 03:02:57;;;;;;;17.15;11.93;;;;;;;16.26;100.00;99170.83;1730462;83;21120;-74
2021/08/05 03:05:23;;;;;;;21.95;12.28;;;;;;;16.31;100.00;99166.39;1730338;83;20960;-74
2021/08/05 03:07:50;;;;;;;15.05;11.88;;;;;;;16.33;100.00;99169.02;1730473;83;21554;-74
2021/08/05 03:10:17;;;;;;;22.45;12.60;;;;;;;16.39;100.00;99166.77;1751854;81;21561;-73
2021/08/05 03:12:44;;;;;;;19.92;11.97;;;;;;;16.43;100.00;99169.03;1730852;82;20925;-74
2021/08/05 03:15:12;;;;;;;15.30;11.38;;;;;;;16.45;100.00;99163.93;1730511;82;20893;-74
2021/08/05 03:17:39;;;;;;;16.55;11.70;;;;;;;16.48;100.00;99168.74;1730768;83;21500;-74
2021/08/05 03:20:06;;;;;;;18.10;12.43;;;;;;;16.48;100.00;99164.00;1730501;83;20973;-74
2021/08/05 03:22:32;;;;;;;17.50;12.68;;;;;;;16.51;100.00;99164.66;1730739;82;20900;-73
2021/08/05 03:24:59;;;;;;;19.95;12.90;;;;;;;16.56;100.00;99168.31;1730729;82;20980;-74
2021/08/05 03:27:25;;;;;;;18.73;12.55;;;;;;;16.60;100.00;99174.73;1730818;83;21494;-74
2021/08/05 03:29:52;;;;;;;17.73;12.23;;;;;;;16.64;100.00;99172.83;1730422;83;20901;-75
2021/08/05 03:32:18;;;;;;;20.27;12.15;;;;;;;16.68;100.00;99176.51;1730663;83;20936;-75
2021/08/05 03:34:45;;;;;;;21.45;11.70;;;;;;;16.72;100.00;99170.45;1730230;83;20916;-75
2021/08/05 03:37:11;;;;;;;17.85;12.00;;;;;;;16.75;100.00;99165.56;1730430;82;21471;-75
2021/08/05 03:39:37;;;;;;;20.08;11.75;;;;;;;16.80;100.00;99169.39;1730310;83;21071;-74
2021/08/05 03:42:04;;;;;;;15.03;11.70;;;;;;;16.83;100.00;99167.28;1730526;83;20984;-74
2021/08/05 03:44:31;;;;;;;18.07;11.40;;;;;;;16.87;100.00;99167.34;1730357;83;20889;-74
2021/08/05 03:46:58;;;;;;;25.12;12.68;;;;;;;16.89;100.00;99167.20;1730316;83;21516;-74
2021/08/05 03:49:26;;;;;;;20.00;12.35;;;;;;;16.94;100.00;99166.10;1730519;82;21393;-74
2021/08/05 03:51:53;;;;;;;18.27;12.43;;;;;;;16.99;100.00;99165.22;1730420;83;21431;-73
2021/08/05 03:54:19;;;;;;;20.35;11.93;;;;;;;17.04;100.00;99164.92;1729664;83;20901;-74
2021/08/05 03:56:46;;;;;;;21.90;12.65;;;;;;;17.11;100.00;99173.95;1736607;81;20893;-75
2021/08/05 03:59:13;;;;;;;18.70;12.55;;;;;;;17.15;100.00;99174.82;1750398;81;20893;-74
2021/08/05 04:01:39;;;;;;;22.48;13.93;;;;;;;17.20;100.00;99174.52;1734175;81;21554;-74
2021/08/05 04:04:06;;;;;;;21.30;13.18;;;;;;;17.24;100.00;99178.16;1729874;83;21437;-74
2021/08/05 04:06:32;;;;;;;24.45;12.63;;;;;;;17.27;100.00;99170.48;1729458;82;21036;-74
2021/08/05 04:08:59;;;;;;;24.45;14.00;;;;;;;17.31;100.00;99174.12;1729447;83;20935;-74
2021/08/05 04:11:25;;;;;;;25.97;14.98;;;;;;;17.35;100.00;99174.16;1729621;83;20917;-74
2021/08/05 04:13:52;;;;;;;22.62;13.60;;;;;;;17.38;100.00;99174.22;1729915;83;21056;-74
2021/08/05 04:16:19;;;;;;;23.77;14.05;;;;;;;17.44;100.00;99165.80;1753076;81;21835;-74
2021/08/05 04:18:45;;;;;;;24.07;13.98;;;;;;;17.51;100.00;99167.90;1760272;81;20933;-74
2021/08/05 04:21:11;;;;;;;33.15;13.10;;;;;;;17.57;100.00;99166.42;1730226;82;20901;-73
2021/08/05 04:23:38;;;;;;;29.90;15.60;;;;;;;17.64;100.00;99161.57;1730063;83;20905;-75
2021/08/05 04:26:06;;;;;;;38.48;18.60;;;;;;;17.73;100.00;99160.17;1730151;82;20905;-72
2021/08/05 04:28:32;;;;;;;39.55;16.45;;;;;;;17.85;100.00;99162.53;1730126;83;21416;-72
2021/08/05 04:30:58;;;;;;;20.88;13.58;;;;;;;17.97;100.00;99165.06;1730161;83;20929;-74
2021/08/05 04:33:25;;;;;;;25.60;13.30;;;;;;;18.07;100.00;99161.05;1730257;83;20936;-76
2021/08/05 04:35:52;;;;;;;27.73;14.33;;;;;;;18.16;100.00;99158.01;1730125;83;20944;-75
2021/08/05 04:38:19;;;;;;;22.58;13.35;;;;;;;18.24;100.00;99160.30;1730239;83;20984;-73
2021/08/05 04:40:46;;;;;;;35.78;14.83;;;;;;;18.33;100.00;99155.27;1730299;83;21146;-72
2021/08/05 04:43:12;;;;;;;32.83;14.68;;;;;;;18.42;100.00;99156.58;1745770;81;20920;-76
2021/08/05 04:45:39;;;;;;;184.97;24.75;;;;;;;18.53;100.00;99159.47;1757095;81;20949;-73
2021/08/05 04:48:07;;;;;;;186.20;23.65;;;;;;;18.62;100.00;99157.23;1743563;81;21436;-76
2021/08/05 04:50:37;;;;;;;137.07;23.55;;;;;;;18.69;100.00;99154.53;1730085;82;20957;-77
2021/08/05 04:53:06;;;;;;;80.20;16.82;;;;;;;18.78;100.00;99157.02;1730380;82;20933;-75
2021/08/05 04:55:34;;;;;;;67.58;16.75;;;;;;;18.88;100.00;99157.73;1732139;81;20960;-75
2021/08/05 04:58:04;;;;;;;27.52;15.48;;;;;;;18.96;100.00;99155.24;1745092;81;20920;-76
2021/08/05 05:00:36;;;;;;;29.32;15.72;;;;;;;19.05;100.00;99151.56;1730333;83;20975;-74
2021/08/05 05:03:04;;;;;;;25.52;15.35;;;;;;;19.14;100.00;99151.23;1747190;81;20881;-75
2021/08/05 05:05:32;;;;;;;27.30;14.40;;;;;;;19.22;100.00;99154.87;1730494;82;20952;-74
2021/08/05 05:08:20;;;;;;;18.35;13.40;;;;;;;19.32;100.00;99161.14;1730346;83;21562;-74
2021/08/05 05:10:51;;;;;;;23.30;13.93;;;;;;;19.42;99.15;99155.67;1730366;83;20889;-74
2021/08/05 05:13:18;;;;;;;20.48;14.05;;;;;;;19.52;98.49;99160.36;1730328;83;21476;-76
2021/08/05 05:15:47;;;;;;;22.05;14.50;;;;;;;19.61;98.50;99161.63;1748572;81;21380;-75
2021/08/05 05:18:18;;;;;;;22.25;13.65;;;;;;;19.67;97.65;99158.67;1759573;80;21546;-76
2021/08/05 05:20:47;;;;;;;19.65;14.20;;;;;;;19.70;96.67;99156.51;1759417;80;21023;-76
2021/08/05 05:23:13;;;;;;;20.45;14.15;;;;;;;19.73;96.87;99161.30;1760311;81;20889;-75
2021/08/05 05:25:40;;;;;;;21.10;14.20;;;;;;;19.77;96.46;99157.16;1760332;81;20893;-75
2021/08/05 05:28:07;;;;;;;18.52;13.93;;;;;;;19.79;96.16;99160.35;1760563;81;20846;-76
2021/08/05 05:30:34;;;;;;;23.45;14.23;;;;;;;19.83;96.13;99163.16;1760341;81;21137;-75
2021/08/05 05:33:02;;;;;;;21.73;14.70;;;;;;;19.85;95.76;99165.77;1760507;81;21519;-75
2021/08/05 05:35:28;;;;;;;26.17;15.32;;;;;;;19.86;94.96;99154.03;1765576;80;21542;-75
2021/08/05 05:37:56;;;;;;;20.10;15.18;;;;;;;19.88;94.96;99154.45;1778457;80;21451;-75
2021/08/05 05:40:23;;;;;;;21.55;14.55;;;;;;;19.89;94.95;99156.05;1778841;80;21408;-75
2021/08/05 05:42:49;;;;;;;23.42;15.10;;;;;;;19.88;94.82;99160.81;1778409;80;21679;-75
2021/08/05 05:45:16;;;;;;;17.55;14.28;;;;;;;19.93;95.33;99151.30;1778831;80;21384;-75
2021/08/05 05:47:43;;;;;;;20.45;14.75;;;;;;;20.01;95.18;99159.32;1778869;80;20849;-75
2021/08/05 05:50:11;;;;;;;21.62;14.75;;;;;;;20.13;94.75;99164.37;1778553;80;20928;-76
2021/08/05 05:52:38;;;;;;;22.82;15.28;;;;;;;20.22;94.39;99150.27;1778910;80;21062;-76
2021/08/05 05:55:06;;;;;;;23.45;15.88;;;;;;;20.31;93.63;99156.28;1778831;80;21129;-76
2021/08/05 05:57:32;;;;;;;27.50;15.70;;;;;;;20.40;93.31;99149.00;1778828;80;21004;-75
2021/08/05 05:59:59;;;;;;;21.57;15.63;;;;;;;20.50;92.51;99146.86;1778693;80;21012;-75
2021/08/05 06:02:26;;;;;;;19.60;13.83;;;;;;;20.60;92.55;99145.30;1750901;80;21012;-74
2021/08/05 06:04:52;;;;;;;21.97;13.83;;;;;;;20.70;91.26;99150.13;1779682;80;21437;-73
2021/08/05 06:07:20;;;;;;;19.62;13.80;;;;;;;20.80;90.44;99142.98;1762732;80;21531;-75
2021/08/05 06:09:47;;;;;;;20.77;13.93;;;;;;;20.90;90.65;99143.59;1765724;80;20998;-76
2021/08/05 06:12:14;;;;;;;17.37;12.65;;;;;;;21.00;90.86;99141.42;1766172;80;21272;-76
2021/08/05 06:14:42;;;;;;;15.72;10.95;;;;;;;21.12;89.87;99137.45;1769619;80;20907;-76
2021/08/05 06:17:09;;;;;;;16.93;11.83;;;;;;;21.25;88.17;99140.91;1756225;80;20974;-76
2021/08/05 06:19:36;;;;;;;21.10;11.45;;;;;;;21.39;86.09;99143.68;1772109;80;21498;-76
2021/08/05 06:22:03;;;;;;;14.78;11.10;;;;;;;21.52;86.06;99145.48;1766325;80;20944;-75
2021/08/05 06:24:30;;;;;;;14.63;10.55;;;;;;;21.67;84.32;99137.30;1758410;80;20939;-75
2021/08/05 06:26:56;;;;;;;17.35;10.05;;;;;;;21.79;84.71;99146.48;1748203;81;20900;-75
2021/08/05 06:29:29;;;;;;;16.70;10.25;;;;;;;21.95;84.18;99139.87;1747957;81;20951;-75
2021/08/05 06:31:51;;;;;;;12.50;9.78;;;;;;;22.14;82.93;99141.44;1747373;82;21515;-75
2021/08/05 06:34:17;;;;;;;16.93;10.55;;;;;;;22.30;80.37;99143.19;1748034;81;21616;-75
2021/08/05 06:36:44;;;;;;;13.62;9.25;;;;;;;22.45;78.50;99140.55;1747645;81;20940;-75
2021/08/05 06:39:11;;;;;;;11.28;8.48;;;;;;;22.58;78.05;99140.87;1747764;81;21061;-75
2021/08/05 06:41:38;;;;;;;12.18;8.85;;;;;;;22.75;77.53;99137.20;1747910;82;20908;-76
2021/08/05 06:44:05;;;;;;;10.50;7.75;;;;;;;22.97;77.64;99138.71;1746944;82;20935;-75
2021/08/05 06:46:31;;;;;;;9.00;6.78;;;;;;;23.23;77.41;99133.72;1747504;82;21455;-75
2021/08/05 06:48:58;;;;;;;14.87;8.48;;;;;;;23.49;75.48;99137.33;1747765;82;21513;-75
2021/08/05 06:51:24;;;;;;;12.43;7.90;;;;;;;23.70;73.90;99127.95;1747733;81;20975;-76
2021/08/05 06:53:52;;;;;;;11.53;7.83;;;;;;;23.82;72.12;99127.45;1748311;82;20927;-73
2021/08/05 06:56:18;;;;;;;11.35;8.15;;;;;;;23.85;70.90;99124.42;1747802;82;21125;-73
2021/08/05 06:58:44;;;;;;;12.75;8.15;;;;;;;23.86;71.96;99127.41;1746669;82;20920;-73
2021/08/05 07:01:11;;;;;;;14.18;7.97;;;;;;;23.96;70.56;99120.91;1747146;81;20991;-76
2021/08/05 07:03:37;;;;;;;17.10;8.93;;;;;;;24.04;70.51;99119.63;1748314;81;20939;-76
2021/08/05 07:06:06;;;;;;;12.95;7.70;;;;;;;24.16;69.39;99118.30;1747835;82;20936;-75
2021/08/05 07:08:35;;;;;;;10.48;7.95;;;;;;;24.20;68.05;99119.05;1748016;81;21943;-75
2021/08/05 07:11:02;;;;;;;13.53;7.53;;;;;;;24.17;67.44;99117.87;1748128;82;20972;-74
2021/08/05 07:13:28;;;;;;;13.62;8.58;;;;;;;24.14;67.53;99108.91;1747941;81;20944;-75
2021/08/05 07:15:55;;;;;;;10.68;7.00;;;;;;;24.22;68.85;99106.81;1747974;82;21026;-74
2021/08/05 07:18:22;;;;;;;15.93;7.28;;;;;;;24.40;68.17;99096.19;1754966;80;20983;-75
2021/08/05 07:20:48;;;;;;;10.53;7.22;;;;;;;24.59;68.38;99095.54;1765672;80;21446;-77
2021/08/05 07:23:15;;;;;;;21.23;7.50;;;;;;;24.74;68.30;99098.16;1748074;82;20880;-74
2021/08/05 07:25:41;;;;;;;8.08;6.40;;;;;;;24.82;65.27;99094.83;1748177;81;20940;-75
2021/08/05 07:28:07;;;;;;;7.62;6.62;;;;;;;24.70;64.07;99092.59;1748121;82;20975;-75
2021/08/05 07:30:34;;;;;;;13.38;7.10;;;;;;;24.56;64.56;99089.36;1748046;81;20892;-76
2021/08/05 07:33:01;;;;;;;7.83;6.15;;;;;;;24.60;64.82;99092.13;1747862;81;21535;-73
2021/08/05 07:35:27;;;;;;;10.10;6.50;;;;;;;24.62;64.38;99084.88;1740172;82;20953;-76
2021/08/05 07:37:54;;;;;;;10.82;6.25;;;;;;;24.59;64.34;99087.13;1716084;82;20929;-75
2021/08/05 07:40:20;;;;;;;10.08;7.00;;;;;;;24.56;65.78;99082.95;1716002;83;20937;-75
2021/08/05 07:42:48;;;;;;;13.90;7.22;;;;;;;24.59;67.20;99083.52;1715957;82;20949;-72
2021/08/05 07:45:15;;;;;;;7.85;6.78;;;;;;;24.65;66.27;99085.44;1715920;83;21952;-77
2021/08/05 07:47:42;;;;;;;10.08;7.33;;;;;;;24.69;66.59;99079.78;1714856;83;21512;-72
2021/08/05 07:50:10;;;;;;;12.60;6.72;;;;;;;24.74;67.06;99083.52;1715348;83;21076;-72
2021/08/05 07:52:37;;;;;;;9.33;7.22;;;;;;;24.81;65.44;99085.43;1715370;83;20985;-71
2021/08/05 07:55:06;;;;;;;10.75;6.25;;;;;;;24.84;67.04;99080.38;1714767;82;21009;-72
2021/08/05 07:57:33;;;;;;;11.18;6.25;;;;;;;24.92;67.16;99077.02;1715488;83;21207;-74
2021/08/05 08:00:04;;;;;;;8.45;6.25;;;;;;;25.01;65.93;99078.71;1715280;82;21551;-74
2021/08/05 08:02:32;;;;;;;10.05;6.25;;;;;;;25.13;66.06;99082.16;1714669;83;21016;-74
2021/08/05 08:04:58;;;;;;;8.80;5.60;;;;;;;25.27;64.61;99078.52;1715351;83;21484;-73
2021/08/05 08:07:25;;;;;;;7.62;5.97;;;;;;;25.30;63.60;99076.25;1715440;83;21005;-73
2021/08/05 08:09:51;;;;;;;13.40;6.22;;;;;;;25.33;64.55;99078.82;1715255;83;21609;-73
2021/08/05 08:12:18;;;;;;;6.75;5.75;;;;;;;25.43;64.31;99078.44;1724986;82;21071;-75
2021/08/05 08:14:46;;;;;;;8.20;6.03;;;;;;;25.47;63.68;99079.17;1722034;81;20932;-78
2021/08/05 08:17:14;;;;;;;11.60;6.42;;;;;;;25.49;62.95;99078.13;1715346;82;20972;-75
2021/08/05 08:19:41;;;;;;;11.08;6.53;;;;;;;25.52;63.74;99071.05;1715326;82;21507;-72
2021/08/05 08:22:09;;;;;;;10.08;5.42;;;;;;;25.66;63.71;99068.02;1715250;83;21122;-73
2021/08/05 08:24:36;;;;;;;9.98;6.10;;;;;;;25.91;62.07;99065.36;1715274;83;21002;-73
2021/08/05 08:27:03;;;;;;;8.93;6.12;;;;;;;26.12;61.00;99071.16;1715241;82;21539;-71
2021/08/05 08:29:30;;;;;;;7.17;5.53;;;;;;;26.22;60.36;99072.36;1715428;83;21005;-73
2021/08/05 08:31:57;;;;;;;11.30;5.83;;;;;;;26.31;61.61;99066.18;1715324;83;21088;-74
2021/08/05 08:34:24;;;;;;;6.92;5.25;;;;;;;26.48;60.77;99064.22;1715645;82;21481;-74
2021/08/05 08:36:50;;;;;;;8.13;6.03;;;;;;;26.57;59.25;99065.19;1734810;82;20940;-73
2021/08/05 08:39:17;;;;;;;13.25;5.92;;;;;;;26.75;59.48;99064.02;1737703;82;20876;-82
2021/08/05 08:41:44;;;;;;;10.88;6.10;;;;;;;26.96;57.54;99060.74;1750785;80;21046;-74
2021/08/05 08:44:13;;;;;;;9.25;7.05;;;;;;;27.07;56.48;99073.16;1761899;80;20967;-81
2021/08/05 08:46:40;;;;;;;8.10;5.95;;;;;;;27.06;57.15;99063.92;1748039;81;21094;-84
2021/08/05 08:49:07;;;;;;;9.03;6.15;;;;;;;27.09;56.63;99064.45;1748032;82;20881;-85
2021/08/05 08:51:34;;;;;;;11.80;7.47;;;;;;;27.22;56.91;99059.68;1748975;80;20931;-80
2021/08/05 08:54:03;;;;;;;10.50;6.92;;;;;;;27.43;56.48;99056.16;1755728;80;20893;-75
2021/08/05 08:56:33;;;;;;;11.12;7.12;;;;;;;27.64;56.55;99052.82;1760877;81;20968;-75
2021/08/05 08:59:00;;;;;;;11.95;6.40;;;;;;;27.88;54.26;99054.77;1749955;80;21548;-78
2021/08/05 09:01:27;;;;;;;13.13;7.40;;;;;;;28.06;54.73;99048.02;1747957;82;20911;-74
2021/08/05 09:03:54;;;;;;;12.55;7.42;;;;;;;28.31;53.81;99043.73;1748132;81;20857;-84
2021/08/05 09:06:20;;;;;;;19.57;7.97;;;;;;;28.60;52.75;99051.50;1747868;82;20900;-73
2021/08/05 09:08:49;;;;;;;11.10;6.80;;;;;;;28.91;50.88;99049.72;1748056;81;20986;-73
2021/08/05 09:11:16;;;;;;;15.72;7.25;;;;;;;28.95;50.97;99047.40;1748225;82;21107;-75
2021/08/05 09:13:45;;;;;;;18.10;7.47;;;;;;;28.94;50.21;99049.44;1760550;80;21474;-73
2021/08/05 09:16:32;;;;;;;11.50;7.10;;;;;;;29.02;50.84;99049.38;1778886;80;21348;-73
2021/08/05 09:19:16;;;;;;;20.77;8.38;;;;;;;29.13;50.61;99049.83;1778488;80;21526;-72
2021/08/05 09:21:52;;;;;;;11.35;6.62;;;;;;;29.07;50.27;99049.44;1779388;80;20904;-74
2021/08/05 09:24:24;;;;;;;10.35;6.55;;;;;;;28.83;50.30;99050.42;1778906;80;23154;-78
2021/08/05 09:26:51;;;;;;;9.85;6.45;;;;;;;28.45;50.75;99044.69;1778380;80;20988;-76
2021/08/05 09:29:19;;;;;;;8.45;6.20;;;;;;;28.15;52.81;99048.17;1778936;80;21569;-76
2021/08/05 09:31:58;;;;;;;9.45;6.70;;;;;;;28.08;53.87;99048.37;1778746;80;20960;-76
2021/08/05 09:34:36;;;;;;;8.50;5.90;;;;;;;28.07;52.06;99043.96;1778863;80;20927;-77
2021/08/05 09:37:05;;;;;;;11.38;6.35;;;;;;;28.10;52.98;99041.66;1772293;80;21091;-75
2021/08/05 09:39:40;;;;;;;10.88;6.65;;;;;;;28.29;53.33;99038.53;1770073;80;20873;-77
2021/08/05 09:42:14;;;;;;;12.05;6.55;;;;;;;28.49;51.76;99036.91;1771280;80;20920;-82
2021/08/05 09:44:46;;;;;;;10.30;5.87;;;;;;;28.64;51.29;99036.65;1770968;81;21022;-71
2021/08/05 09:47:16;;;;;;;17.85;6.83;;;;;;;28.93;51.28;99030.28;1770893;81;20885;-69
2021/08/05 09:49:51;;;;;;;8.23;6.30;;;;;;;29.30;52.55;99028.50;1771174;80;21160;-75
2021/08/05 09:52:36;;;;;;;11.15;7.03;;;;;;;29.55;50.00;99025.61;1771127;81;20963;-67
2021/08/05 09:55:06;;;;;;;8.20;6.20;;;;;;;29.42;49.14;99027.09;1771315;81;20984;-75
2021/08/05 09:57:37;;;;;;;13.35;6.80;;;;;;;29.28;50.46;99028.95;1771352;81;20974;-69
2021/08/05 10:00:10;;;;;;;7.60;5.95;;;;;;;29.41;51.47;99024.09;1771796;80;20928;-69
2021/08/05 10:02:52;;;;;;;8.63;6.05;;;;;;;29.76;48.84;99021.25;1762433;80;21565;-67
2021/08/05 10:05:24;;;;;;;8.35;5.67;;;;;;;30.00;46.82;99015.34;1771190;80;20975;-67
2021/08/05 10:07:56;;;;;;;15.63;6.92;;;;;;;30.20;47.50;99015.78;1771318;81;20981;-68
2021/08/05 10:10:25;;;;;;;8.03;6.15;;;;;;;30.44;45.79;99018.92;1752037;81;20900;-68
2021/08/05 10:12:58;;;;;;;10.70;6.90;;;;;;;30.50;45.82;99020.53;1740812;82;20864;-76
2021/08/05 10:15:26;;;;;;;7.28;5.95;;;;;;;30.46;45.45;99020.66;1739671;82;21101;-76
2021/08/05 10:17:59;;;;;;;8.20;6.45;;;;;;;30.55;45.89;99013.64;1740541;82;21031;-68
2021/08/05 10:20:28;;;;;;;8.08;5.53;;;;;;;30.54;45.39;99011.27;1740736;82;21452;-66
2021/08/05 10:22:58;;;;;;;9.55;6.12;;;;;;;30.12;45.54;99007.39;1740916;82;21408;-69
2021/08/05 10:25:26;;;;;;;9.78;6.05;;;;;;;30.06;46.87;99004.98;1745948;81;21440;-70
2021/08/05 10:27:58;;;;;;;8.63;5.15;;;;;;;30.33;47.69;99006.42;1694760;84;21049;-75
2021/08/05 10:30:25;;;;;;;8.25;4.85;;;;;;;30.71;45.75;99004.11;1760540;81;20988;-70
2021/08/05 10:32:52;;;;;;;5.72;4.40;;;;;;;30.87;43.87;98998.20;1747043;81;20928;-68
2021/08/05 10:35:18;;;;;;;7.30;4.28;;;;;;;30.83;43.67;98989.69;1731128;82;20960;-67
2021/08/05 10:37:47;;;;;;;14.98;5.05;;;;;;;30.83;44.38;98992.52;1753001;81;20908;-76
2021/08/05 10:40:15;;;;;;;7.53;4.40;;;;;;;30.81;45.75;98987.31;1709952;81;21055;-73
2021/08/05 10:42:46;;;;;;;8.00;4.62;;;;;;;30.80;43.85;98990.61;1758011;81;21574;-66
2021/08/05 10:45:15;;;;;;;13.98;4.83;;;;;;;30.65;43.48;98993.23;1754589;81;21423;-73
2021/08/05 10:47:43;;;;;;;8.10;4.97;;;;;;;30.54;44.83;98990.03;1760608;81;20960;-72
2021/08/05 10:50:13;;;;;;;9.08;4.60;;;;;;;30.51;45.37;98989.54;1693450;81;20993;-72
2021/08/05 10:52:44;;;;;;;10.50;4.72;;;;;;;30.49;44.89;98984.34;1760681;80;21468;-69
2021/08/05 10:55:37;;;;;;;10.13;4.67;;;;;;;30.47;46.44;98981.18;1760505;81;21483;-75
2021/08/05 10:58:28;;;;;;;10.08;4.80;;;;;;;30.33;44.71;98979.53;1760624;81;20981;-76
2021/08/05 11:00:58;;;;;;;8.30;4.50;;;;;;;30.16;45.57;98972.67;1759923;81;48258;-75
2021/08/05 11:03:40;;;;;;;8.68;5.53;;;;;;;30.03;47.58;98971.98;1760647;81;20917;-72
2021/08/05 11:06:26;;;;;;;7.00;4.42;;;;;;;29.98;47.16;98975.38;1760488;81;21131;-75
2021/08/05 11:08:53;;;;;;;6.08;4.00;;;;;;;30.01;46.16;98972.28;1760669;81;20834;-76
2021/08/05 11:11:27;;;;;;;7.30;4.03;;;;;;;30.07;46.05;98968.98;1732350;81;20901;-74
2021/08/05 11:14:05;;;;;;;5.55;4.00;;;;;;;30.27;44.87;98962.35;1751914;81;20857;-75
2021/08/05 11:16:55;;;;;;;8.18;4.35;;;;;;;30.51;44.56;98954.14;1750004;81;20873;-74
2021/08/05 11:19:25;;;;;;;6.45;4.30;;;;;;;30.88;45.65;98960.11;1730772;81;21099;-74
2021/08/05 11:21:54;;;;;;;5.15;3.87;;;;;;;31.28;43.95;98964.14;1760915;80;20865;-75
2021/08/05 11:24:50;;;;;;;4.78;4.10;;;;;;;31.54;42.94;98956.91;1755577;81;20960;-75
2021/08/05 11:27:21;;;;;;;4.85;3.85;;;;;;;31.65;41.94;98952.98;1754877;81;20996;-75